Time;durP1;ratioP1;P1;durP2;ratioP2;P2;SDS_P1;SDS_P2;PMS_P1;PMS_P2;Temp;Humidity;BMP_temperature;BMP_pressure;BME280_temperature;BME280_humidity;BME280_pressure;Samples;Min_cycle;Max_cycle;Signal;HPM_P1;HPM_P2
2021/06/04 00:00:31;;;;;;;4.15;2.45;;;;;;;13.44;84.47;101150.88;1780053;80;21049;-60
2021/06/04 00:03:08;;;;;;;5.05;2.30;;;;;;;13.40;84.53;101153.71;1765312;80;21534;-60
2021/06/04 00:05:38;;;;;;;6.72;2.70;;;;;;;13.37;84.59;101154.70;1783890;78;21012;-61
2021/06/04 00:08:05;;;;;;;8.35;2.62;;;;;;;13.35;84.62;101151.20;1819593;78;21415;-60
2021/06/04 00:10:42;;;;;;;4.00;2.12;;;;;;;13.33;84.72;101151.73;1814222;78;20885;-60
2021/06/04 00:13:37;;;;;;;4.10;2.40;;;;;;;13.30;84.63;101142.44;1727285;82;21599;-60
2021/06/04 00:16:16;;;;;;;9.25;2.58;;;;;;;13.28;84.90;101142.97;1765466;81;21613;-61
2021/06/04 00:18:44;;;;;;;6.55;2.00;;;;;;;13.26;84.78;101129.59;1768335;81;20949;-60
2021/06/04 00:21:16;;;;;;;4.50;2.60;;;;;;;13.24;84.89;101144.03;1767137;80;21087;-60
2021/06/04 00:23:43;;;;;;;9.28;2.15;;;;;;;13.23;85.02;101128.82;1769411;80;20962;-59
2021/06/04 00:26:11;;;;;;;5.08;2.77;;;;;;;13.22;84.95;101136.48;1767436;81;21048;-62
2021/06/04 00:28:39;;;;;;;7.08;2.85;;;;;;;13.21;85.16;101132.91;1767463;81;21048;-60
2021/06/04 00:31:07;;;;;;;4.83;2.90;;;;;;;13.21;85.58;101134.74;1725866;81;21095;-58
2021/06/04 00:33:34;;;;;;;8.75;2.80;;;;;;;13.20;86.11;101137.03;1730995;82;21047;-61
2021/06/04 00:36:04;;;;;;;7.37;3.30;;;;;;;13.17;86.36;101142.05;1740045;80;21079;-59
2021/06/04 00:38:31;;;;;;;4.50;2.62;;;;;;;13.15;86.72;101146.17;1791242;79;20970;-61
2021/06/04 00:41:04;;;;;;;7.03;2.50;;;;;;;13.11;86.91;101143.16;1788014;78;22395;-60
2021/06/04 00:43:33;;;;;;;7.07;2.57;;;;;;;13.08;86.85;101160.78;1753265;81;21040;-60
2021/06/04 00:46:02;;;;;;;8.95;2.72;;;;;;;13.04;86.97;101144.35;1790835;80;21397;-61
2021/06/04 00:48:29;;;;;;;5.80;2.87;;;;;;;13.02;87.20;101150.27;1741788;82;22181;-58
2021/06/04 00:51:12;;;;;;;5.37;2.60;;;;;;;13.00;87.32;101149.45;1743314;82;20889;-59
2021/06/04 00:53:40;;;;;;;4.15;2.37;;;;;;;12.97;87.12;101150.92;1742865;80;21131;-60
2021/06/04 00:56:08;;;;;;;4.85;2.50;;;;;;;12.98;87.00;101145.95;1741426;82;21443;-60
2021/06/04 00:58:40;;;;;;;3.42;2.10;;;;;;;12.97;86.67;101150.92;1743756;82;21340;-59
2021/06/04 01:01:08;;;;;;;4.62;2.58;;;;;;;12.96;86.49;101153.20;1742705;82;21043;-62
2021/06/04 01:03:39;;;;;;;7.22;2.45;;;;;;;12.95;86.58;101146.07;1742086;82;21011;-62
2021/06/04 01:06:21;;;;;;;4.40;2.65;;;;;;;12.96;86.52;101145.13;1717369;81;21536;-61
2021/06/04 01:09:24;;;;;;;10.80;3.10;;;;;;;12.95;86.15;101143.38;1772594;80;21027;-62
2021/06/04 01:12:30;;;;;;;8.53;3.33;;;;;;;12.91;86.21;101147.98;1771406;80;21082;-62
2021/06/04 01:15:09;;;;;;;6.92;2.85;;;;;;;12.89;86.29;101149.37;1772280;80;21024;-62
2021/06/04 01:17:52;;;;;;;9.25;2.65;;;;;;;12.86;86.19;101145.47;1754612;80;20960;-61
2021/06/04 01:20:29;;;;;;;5.65;2.77;;;;;;;12.82;86.41;101153.25;1784692;79;21103;-60
2021/06/04 01:23:10;;;;;;;4.17;2.95;;;;;;;12.77;86.52;101145.83;1795827;78;21055;-59
2021/06/04 01:25:54;;;;;;;9.08;2.98;;;;;;;12.72;86.59;101150.52;1797395;79;21078;-60
2021/06/04 01:28:39;;;;;;;9.63;2.60;;;;;;;12.68;86.68;101152.88;1768639;79;20955;-61
2021/06/04 01:31:28;;;;;;;7.25;2.55;;;;;;;12.61;86.93;101153.13;1763293;79;21042;-60
2021/06/04 01:34:14;;;;;;;10.35;2.70;;;;;;;12.56;87.15;101153.77;1797334;79;21549;-60
2021/06/04 01:36:52;;;;;;;6.42;2.50;;;;;;;12.53;87.33;101165.98;1789437;79;21097;-63
2021/06/04 01:39:41;;;;;;;4.67;2.40;;;;;;;12.49;87.42;101154.94;1760255;80;21116;-61
2021/06/04 01:42:13;;;;;;;7.60;2.95;;;;;;;12.45;87.64;101149.23;1765719;81;21047;-61
2021/06/04 01:44:45;;;;;;;8.25;3.00;;;;;;;12.42;87.89;101157.42;1767921;79;21077;-63
2021/06/04 01:47:16;;;;;;;10.53;3.25;;;;;;;12.41;88.01;101164.62;1743949;81;21551;-62
2021/06/04 01:49:46;;;;;;;6.28;2.50;;;;;;;12.39;88.28;101164.25;1759867;80;21056;-62
2021/06/04 01:52:22;;;;;;;9.13;2.75;;;;;;;12.37;88.53;101158.92;1746253;81;20979;-59
2021/06/04 01:55:13;;;;;;;10.68;3.00;;;;;;;12.37;88.77;101172.36;1764017;81;22325;-60
2021/06/04 01:57:45;;;;;;;7.85;3.37;;;;;;;12.37;88.79;101171.50;1748736;80;21524;-60
2021/06/04 02:00:24;;;;;;;6.17;2.67;;;;;;;12.34;89.02;101176.99;1749264;80;21139;-60
2021/06/04 02:02:53;;;;;;;12.73;2.95;;;;;;;12.28;89.19;101169.56;1743895;82;21039;-59
2021/06/04 02:05:29;;;;;;;3.80;2.65;;;;;;;12.25;89.53;101172.81;1747959;81;21063;-58
2021/06/04 02:07:58;;;;;;;8.05;2.92;;;;;;;12.21;89.69;101181.45;1754356;80;21095;-59
2021/06/04 02:10:30;;;;;;;9.93;2.75;;;;;;;12.17;89.94;101177.11;1738280;81;21509;-59
2021/06/04 02:12:59;;;;;;;4.55;2.60;;;;;;;12.12;90.26;101178.61;1755985;81;21624;-63
2021/06/04 02:15:34;;;;;;;6.35;2.70;;;;;;;12.04;90.55;101173.50;1760862;81;21707;-60
2021/06/04 02:18:23;;;;;;;5.30;3.00;;;;;;;12.02;90.99;101175.84;1737962;80;21019;-61
2021/06/04 02:21:23;;;;;;;5.87;2.70;;;;;;;11.98;91.17;101173.68;1730991;81;21912;-61
2021/06/04 02:24:14;;;;;;;6.80;2.67;;;;;;;11.96;91.48;101164.80;1732137;82;21042;-62
2021/06/04 02:26:52;;;;;;;5.45;2.45;;;;;;;11.96;91.64;101168.83;1714405;82;21671;-62
2021/06/04 02:29:36;;;;;;;5.00;2.83;;;;;;;11.97;91.55;101171.92;1731939;82;21036;-60
2021/06/04 02:32:27;;;;;;;8.85;2.60;;;;;;;11.99;91.52;101171.89;1755371;80;21107;-60
2021/06/04 02:35:00;;;;;;;6.50;2.20;;;;;;;12.01;91.47;101176.30;1749987;80;21055;-59
2021/06/04 02:37:36;;;;;;;3.35;2.30;;;;;;;12.02;91.41;101171.33;1732443;82;21059;-59
2021/06/04 02:40:13;;;;;;;;;;;;;;;12.02;91.44;101172.67;1752859;81;21107;-60
2021/06/04 02:42:46;;;;;;;9.95;3.08;;;;;;;11.99;91.46;101174.09;1762342;81;20470;-59
2021/06/04 02:45:37;;;;;;;5.37;2.40;;;;;;;11.96;91.52;101180.92;1762103;81;21115;-59
2021/06/04 02:48:12;;;;;;;5.70;2.47;;;;;;;11.96;91.52;101175.55;1762009;80;21024;-59
2021/06/04 02:50:47;;;;;;;3.98;2.22;;;;;;;11.95;91.50;101176.48;1762979;80;21090;-59
2021/06/04 02:53:32;;;;;;;12.93;2.55;;;;;;;11.96;91.42;101172.00;1735046;81;21394;-62
2021/06/04 02:56:20;;;;;;;3.45;2.40;;;;;;;11.99;91.25;101178.12;1732153;82;21066;-63
2021/06/04 02:59:13;;;;;;;3.75;2.17;;;;;;;12.02;91.04;101171.33;1732487;82;21651;-61
2021/06/04 03:01:44;;;;;;;4.53;2.50;;;;;;;12.07;90.88;101179.72;1753454;81;21557;-59
2021/06/04 03:04:14;;;;;;;8.53;2.80;;;;;;;12.14;90.76;101186.63;1760096;80;21115;-61
2021/06/04 03:06:48;;;;;;;8.45;2.40;;;;;;;12.23;90.50;101190.33;1762117;81;21034;-60
2021/06/04 03:09:20;;;;;;;5.15;2.70;;;;;;;12.34;90.24;101193.98;1766067;79;20933;-59
2021/06/04 03:11:49;;;;;;;5.20;2.80;;;;;;;12.45;89.84;101197.64;1776099;80;21671;-61
2021/06/04 03:14:17;;;;;;;7.22;2.60;;;;;;;12.55;89.45;101199.08;1780528;79;21300;-60
2021/06/04 03:16:46;;;;;;;4.87;2.42;;;;;;;12.65;89.13;101198.28;1788453;79;20973;-63
2021/06/04 03:19:15;;;;;;;6.70;2.30;;;;;;;12.76;88.62;101191.16;1786659;80;21434;-61
2021/06/04 03:21:53;;;;;;;6.45;2.83;;;;;;;12.85;88.19;101202.05;1786133;80;21060;-60
2021/06/04 03:24:25;;;;;;;5.67;2.47;;;;;;;12.97;87.63;101200.71;1782368;80;21034;-62
2021/06/04 03:26:54;;;;;;;8.45;2.25;;;;;;;13.07;87.20;101199.41;1749771;80;21561;-63
2021/06/04 03:29:22;;;;;;;7.92;2.55;;;;;;;13.16;86.63;101204.46;1741858;82;21039;-61
2021/06/04 03:31:55;;;;;;;3.70;2.10;;;;;;;13.26;86.50;101203.63;1769436;80;21111;-61
2021/06/04 03:34:22;;;;;;;4.50;2.20;;;;;;;13.35;86.05;101196.98;1773517;80;21008;-62
2021/06/04 03:36:51;;;;;;;5.22;2.72;;;;;;;13.46;85.71;101198.83;1770470;80;21024;-61
2021/06/04 03:39:22;;;;;;;7.22;2.58;;;;;;;13.56;85.25;101195.75;1741084;80;21087;-63
2021/06/04 03:41:51;;;;;;;5.28;2.25;;;;;;;13.65;85.08;101195.84;1772674;80;21020;-59
2021/06/04 03:44:21;;;;;;;4.97;2.47;;;;;;;13.74;84.63;101196.34;1754605;80;21115;-59
2021/06/04 03:46:48;;;;;;;7.12;3.02;;;;;;;13.82;84.21;101195.17;1793708;79;20967;-59
2021/06/04 03:49:16;;;;;;;5.60;2.40;;;;;;;13.88;84.14;101194.91;1754258;81;21405;-59
2021/06/04 03:51:44;;;;;;;5.53;2.50;;;;;;;13.95;83.93;101191.00;1792827;79;21481;-61
2021/06/04 03:54:16;;;;;;;5.60;2.80;;;;;;;14.02;83.73;101183.05;1755378;80;21108;-61
2021/06/04 03:56:45;;;;;;;9.03;2.72;;;;;;;14.11;83.66;101184.97;1756503;80;21528;-61
2021/06/04 03:59:11;;;;;;;8.93;2.62;;;;;;;14.18;83.53;101187.34;1787431;80;21555;-59
2021/06/04 04:01:44;;;;;;;6.90;2.17;;;;;;;14.26;83.51;101182.97;1765734;78;21425;-59
2021/06/04 04:04:10;;;;;;;7.05;2.40;;;;;;;14.36;83.32;101183.41;1788724;80;21091;-59
2021/06/04 04:06:38;;;;;;;4.47;2.47;;;;;;;14.47;82.72;101186.98;1755139;81;21366;-62
2021/06/04 04:09:07;;;;;;;7.30;2.42;;;;;;;14.54;82.26;101184.89;1770959;80;21528;-61
2021/06/04 04:11:35;;;;;;;8.55;2.65;;;;;;;14.61;82.15;101187.25;1767733;80;21019;-61
2021/06/04 04:14:03;;;;;;;6.60;2.40;;;;;;;14.70;81.77;101181.91;1786003;80;20986;-62
2021/06/04 04:16:30;;;;;;;2.92;2.20;;;;;;;14.78;81.45;101180.70;1746971;81;21577;-62
2021/06/04 04:18:59;;;;;;;8.43;2.50;;;;;;;14.84;80.66;101181.31;1723848;82;21998;-62
2021/06/04 04:21:27;;;;;;;4.47;2.55;;;;;;;14.88;80.54;101177.52;1759873;81;22417;-61
2021/06/04 04:23:58;;;;;;;6.08;2.20;;;;;;;14.92;80.30;101185.47;1776216;78;21056;-62
2021/06/04 04:26:29;;;;;;;7.00;2.60;;;;;;;14.90;80.22;101181.50;1751780;81;21112;-61
2021/06/04 04:28:56;;;;;;;10.23;2.22;;;;;;;14.86;80.51;101178.06;1752886;81;21103;-60
2021/06/04 04:31:27;;;;;;;5.85;2.42;;;;;;;14.86;80.57;101178.06;1791155;80;21428;-59
2021/06/04 04:33:54;;;;;;;5.35;2.25;;;;;;;14.85;80.69;101177.66;1750477;80;21112;-59
2021/06/04 04:36:25;;;;;;;7.95;2.37;;;;;;;14.86;80.72;101183.46;1741265;82;21103;-59
2021/06/04 04:38:52;;;;;;;6.40;2.15;;;;;;;14.88;80.52;101186.97;1742460;82;21075;-59
2021/06/04 04:41:18;;;;;;;5.20;2.27;;;;;;;14.88;80.59;101178.86;1741606;81;21144;-61
2021/06/04 04:43:49;;;;;;;5.67;2.40;;;;;;;14.90;80.42;101180.16;1741537;82;21107;-61
2021/06/04 04:46:16;;;;;;;7.45;2.70;;;;;;;14.92;80.43;101171.51;1741007;82;21550;-61
2021/06/04 04:48:44;;;;;;;8.03;2.35;;;;;;;14.97;79.93;101182.10;1741018;82;21103;-61
2021/06/04 04:51:11;;;;;;;8.43;2.58;;;;;;;14.99;79.41;101185.61;1748667;80;21040;-61
2021/06/04 04:53:37;;;;;;;5.50;2.45;;;;;;;15.02;79.55;101186.80;1793246;78;21075;-60
2021/06/04 04:56:05;;;;;;;6.87;2.58;;;;;;;15.07;78.86;101195.56;1790942;80;22206;-62
2021/06/04 04:58:32;;;;;;;6.95;2.98;;;;;;;15.13;78.38;101204.72;1792103;79;21780;-61
2021/06/04 05:01:02;;;;;;;6.55;2.65;;;;;;;15.23;78.11;101202.95;1790809;79;21035;-61
2021/06/04 05:03:28;;;;;;;4.75;2.98;;;;;;;15.35;77.17;101196.94;1793356;79;20943;-61
2021/06/04 05:05:55;;;;;;;5.65;2.40;;;;;;;15.49;76.19;101204.41;1802315;79;21105;-61
2021/06/04 05:08:22;;;;;;;7.95;3.00;;;;;;;15.60;75.35;101194.42;1797870;79;21552;-61
2021/06/04 05:10:49;;;;;;;4.53;3.10;;;;;;;15.73;75.04;101207.72;1794101;78;21584;-60
2021/06/04 05:13:16;;;;;;;6.70;3.10;;;;;;;15.88;73.94;101210.63;1828971;78;21043;-60
2021/06/04 05:15:43;;;;;;;3.98;2.70;;;;;;;15.96;73.68;101207.08;1799317;78;21656;-61
2021/06/04 05:18:11;;;;;;;7.40;3.42;;;;;;;16.02;73.71;101210.81;1786796;80;21723;-63
2021/06/04 05:20:38;;;;;;;6.15;3.00;;;;;;;16.09;72.91;101201.91;1785357;80;21008;-61
2021/06/04 05:23:05;;;;;;;15.15;7.40;;;;;;;16.09;72.57;101218.64;1786695;78;22361;-63
2021/06/04 05:25:36;;;;;;;15.23;10.25;;;;;;;16.01;72.78;101219.87;1790987;79;21548;-60
2021/06/04 05:28:04;;;;;;;19.73;6.97;;;;;;;15.99;73.63;101217.73;1792953;80;20959;-62
2021/06/04 05:30:34;;;;;;;13.62;7.50;;;;;;;16.01;73.50;101227.99;1792420;79;21539;-60
2021/06/04 05:33:01;;;;;;;13.90;8.88;;;;;;;16.03;73.14;101222.52;1790592;80;20968;-62
2021/06/04 05:35:28;;;;;;;12.35;7.83;;;;;;;16.01;72.86;101236.11;1756881;80;22014;-62
2021/06/04 05:37:54;;;;;;;10.72;6.70;;;;;;;15.99;73.01;101223.14;1802582;78;20920;-62
2021/06/04 05:40:33;;;;;;;13.88;6.35;;;;;;;15.95;72.52;101228.31;1804268;78;21109;-61
2021/06/04 05:43:00;;;;;;;13.60;7.78;;;;;;;15.95;71.84;101235.07;1798550;78;20908;-61
2021/06/04 05:45:30;;;;;;;17.00;12.35;;;;;;;15.93;71.92;101232.92;1778963;78;21098;-62
2021/06/04 05:47:57;;;;;;;19.60;12.58;;;;;;;15.89;71.47;101229.48;1781508;78;21080;-62
2021/06/04 05:50:31;;;;;;;15.48;8.68;;;;;;;15.85;71.75;101241.38;1787682;78;20932;-62
2021/06/04 05:53:00;;;;;;;17.77;9.80;;;;;;;15.85;71.44;101235.11;1764295;80;21365;-60
2021/06/04 05:55:27;;;;;;;12.88;7.03;;;;;;;15.82;71.01;101244.73;1763181;80;21063;-61
2021/06/04 05:57:54;;;;;;;20.43;10.78;;;;;;;15.76;71.75;101241.35;1784703;78;20991;-59
2021/06/04 06:00:26;;;;;;;13.53;7.50;;;;;;;15.78;71.71;101236.34;1796914;78;21083;-62
2021/06/04 06:02:52;;;;;;;13.62;8.53;;;;;;;15.82;71.24;101248.78;1801094;78;21083;-60
2021/06/04 06:05:19;;;;;;;11.38;6.53;;;;;;;15.85;71.42;101243.22;1740435;80;21846;-60
2021/06/04 06:07:47;;;;;;;25.30;10.95;;;;;;;15.91;71.13;101252.41;1759355;80;21552;-60
2021/06/04 06:10:14;;;;;;;24.67;11.18;;;;;;;15.99;71.52;101259.65;1752032;80;21091;-60
2021/06/04 06:12:40;;;;;;;14.65;8.33;;;;;;;16.11;71.09;101249.19;1760809;79;21069;-60
2021/06/04 06:15:10;;;;;;;9.28;6.70;;;;;;;16.21;70.33;101263.98;1752386;80;21476;-61
2021/06/04 06:17:38;;;;;;;11.55;6.70;;;;;;;16.29;70.44;101264.48;1760584;80;20889;-61
2021/06/04 06:20:09;;;;;;;14.65;6.92;;;;;;;16.32;69.83;101255.31;1756411;80;21486;-61
2021/06/04 06:22:35;;;;;;;10.23;6.95;;;;;;;16.36;70.02;101258.75;1748670;80;21438;-60
2021/06/04 06:25:07;;;;;;;7.03;4.50;;;;;;;16.44;70.07;101256.52;1759844;80;22257;-60
2021/06/04 06:27:34;;;;;;;13.03;7.35;;;;;;;16.54;69.67;101248.33;1755359;80;21535;-62
2021/06/04 06:30:01;;;;;;;8.23;5.10;;;;;;;16.58;69.30;101251.27;1751980;79;21648;-61
2021/06/04 06:32:27;;;;;;;13.45;7.67;;;;;;;16.61;68.59;101252.45;1756384;80;21060;-61
2021/06/04 06:34:54;;;;;;;11.48;4.87;;;;;;;16.67;69.26;101240.90;1757076;80;21099;-61
2021/06/04 06:37:21;;;;;;;25.72;12.15;;;;;;;16.77;68.24;101243.53;1756039;80;21498;-61
2021/06/04 06:39:48;;;;;;;17.30;11.50;;;;;;;16.86;68.45;101244.38;1758896;80;20854;-60
2021/06/04 06:42:14;;;;;;;16.85;8.60;;;;;;;16.99;68.75;101251.39;1755414;80;21164;-60
2021/06/04 06:44:41;;;;;;;14.90;7.58;;;;;;;17.10;67.83;101252.16;1758425;80;21036;-61
2021/06/04 06:47:09;;;;;;;13.95;9.35;;;;;;;17.23;67.70;101246.08;1758723;80;21109;-61
2021/06/04 06:49:35;;;;;;;13.40;4.72;;;;;;;17.32;67.13;101250.98;1759066;80;21080;-60
2021/06/04 06:52:03;;;;;;;11.97;6.40;;;;;;;17.43;66.97;101249.92;1724886;81;21106;-61
2021/06/04 06:54:32;;;;;;;12.78;7.22;;;;;;;17.54;65.87;101252.48;1760787;80;20897;-60
2021/06/04 06:56:59;;;;;;;13.15;7.97;;;;;;;17.67;65.79;101268.93;1760281;80;20909;-60
2021/06/04 06:59:29;;;;;;;17.45;12.65;;;;;;;17.87;65.07;101270.52;1762298;80;20936;-60
2021/06/04 07:02:10;;;;;;;17.42;9.93;;;;;;;18.06;64.53;101254.07;1732144;80;21529;-61
2021/06/04 07:04:37;;;;;;;9.58;6.30;;;;;;;18.22;63.11;101251.31;1723280;81;20996;-61
2021/06/04 07:07:04;;;;;;;20.62;7.37;;;;;;;18.29;62.47;101254.08;1760629;80;20972;-61
2021/06/04 07:09:32;;;;;;;9.68;8.30;;;;;;;18.32;62.49;101245.75;1763718;80;20885;-61
2021/06/04 07:12:00;;;;;;;12.82;7.62;;;;;;;18.40;62.79;101256.62;1756918;80;21324;-61
2021/06/04 07:14:31;;;;;;;18.92;8.33;;;;;;;18.47;62.61;101265.66;1753824;80;21702;-62
2021/06/04 07:16:58;;;;;;;14.18;7.12;;;;;;;18.57;63.18;101255.12;1754823;80;21104;-61
2021/06/04 07:19:25;;;;;;;14.47;7.85;;;;;;;18.70;62.43;101258.45;1749555;80;21068;-62
2021/06/04 07:21:53;;;;;;;19.25;11.05;;;;;;;18.77;60.69;101262.53;1754036;80;21059;-62
2021/06/04 07:24:22;;;;;;;12.75;8.93;;;;;;;18.83;61.29;101248.56;1734736;80;21500;-60
2021/06/04 07:26:54;;;;;;;11.45;5.17;;;;;;;18.99;61.62;101264.80;1725485;81;21168;-61
2021/06/04 07:29:22;;;;;;;13.83;5.50;;;;;;;19.18;60.37;101263.18;1748686;80;20881;-61
2021/06/04 07:31:49;;;;;;;7.47;4.53;;;;;;;19.28;60.10;101261.22;1747545;80;20897;-61
2021/06/04 07:34:16;;;;;;;10.03;4.53;;;;;;;19.33;59.83;101261.80;1748283;80;21055;-61
2021/06/04 07:36:47;;;;;;;9.98;3.80;;;;;;;19.45;60.42;101259.66;1747362;80;21209;-61
2021/06/04 07:39:19;;;;;;;9.90;4.05;;;;;;;19.52;59.39;101254.70;1722974;80;21106;-59
2021/06/04 07:41:46;;;;;;;7.87;4.87;;;;;;;19.52;59.44;101256.53;1746236;80;20936;-61
2021/06/04 07:44:14;;;;;;;15.72;8.03;;;;;;;19.57;59.00;101253.91;1755071;80;20909;-61
2021/06/04 07:46:42;;;;;;;14.85;6.53;;;;;;;19.62;58.44;101267.22;1688528;82;21070;-62
2021/06/04 07:49:09;;;;;;;10.18;5.03;;;;;;;19.72;57.45;101259.33;1742016;80;21054;-60
2021/06/04 07:51:39;;;;;;;6.80;4.05;;;;;;;19.85;56.36;101270.27;1748005;80;21797;-62
2021/06/04 07:54:06;;;;;;;5.15;3.80;;;;;;;19.97;55.20;101257.22;1723999;80;21107;-61
2021/06/04 07:56:33;;;;;;;10.95;5.22;;;;;;;20.08;55.43;101269.26;1744837;80;21068;-60
2021/06/04 07:59:00;;;;;;;9.98;6.20;;;;;;;20.21;54.37;101263.34;1751125;80;21107;-61
2021/06/04 08:01:29;;;;;;;6.90;3.35;;;;;;;20.28;52.17;101268.78;1744939;80;21145;-60
2021/06/04 08:03:57;;;;;;;11.75;5.62;;;;;;;20.32;51.76;101281.67;1746134;80;21119;-62
2021/06/04 08:06:24;;;;;;;6.80;3.60;;;;;;;20.39;52.57;101257.63;1749814;80;21019;-61
2021/06/04 08:08:57;;;;;;;6.50;2.30;;;;;;;20.52;50.71;101274.88;1752478;80;21110;-60
2021/06/04 08:11:29;;;;;;;10.45;3.60;;;;;;;20.53;50.65;101276.63;1749657;80;21047;-61
2021/06/04 08:13:58;;;;;;;18.30;7.30;;;;;;;20.49;52.00;101267.41;1750782;80;20940;-61
2021/06/04 08:16:27;;;;;;;11.18;4.67;;;;;;;20.50;52.00;101265.95;1749578;80;21744;-62
2021/06/04 08:18:56;;;;;;;10.05;3.20;;;;;;;20.50;51.87;101274.12;1753343;81;21454;-61
2021/06/04 08:21:31;;;;;;;9.65;3.10;;;;;;;20.45;50.98;101288.05;1751153;80;20858;-60
2021/06/04 08:23:58;;;;;;;12.13;4.28;;;;;;;20.41;51.83;101277.45;1737410;80;21439;-61
2021/06/04 08:26:28;;;;;;;14.65;8.03;;;;;;;20.36;52.48;101259.20;1792018;79;21034;-61
2021/06/04 08:28:54;;;;;;;16.95;9.03;;;;;;;20.33;53.07;101259.80;1788817;78;21108;-61
2021/06/04 08:31:24;;;;;;;17.00;5.75;;;;;;;20.33;52.06;101274.78;1792787;79;21019;-61
2021/06/04 08:33:51;;;;;;;14.68;4.92;;;;;;;20.37;52.52;101265.03;1785990;78;21107;-61
2021/06/04 08:36:22;;;;;;;6.53;4.17;;;;;;;20.37;50.97;101263.20;1751622;78;21059;-61
2021/06/04 08:38:49;;;;;;;8.28;4.40;;;;;;;20.40;50.57;101271.63;1783103;78;21038;-60
2021/06/04 08:41:38;;;;;;;16.87;7.00;;;;;;;20.40;50.10;101277.08;1787325;78;22211;-61
2021/06/04 08:44:16;;;;;;;10.40;3.27;;;;;;;20.39;50.04;101281.66;1786814;79;21091;-62
2021/06/04 08:46:47;;;;;;;12.50;5.17;;;;;;;20.43;48.46;101274.13;1793903;78;20885;-60
2021/06/04 08:49:31;;;;;;;13.35;6.45;;;;;;;20.50;48.80;101285.02;1749544;80;21557;-66
2021/06/04 08:52:22;;;;;;;12.80;5.83;;;;;;;20.53;48.63;101279.35;1788404;78;20936;-68
2021/06/04 08:55:19;;;;;;;4.53;2.40;;;;;;;20.58;48.74;101297.60;1781980;78;21090;-66
2021/06/04 08:58:23;;;;;;;10.82;4.80;;;;;;;20.60;47.77;101302.45;1752027;78;37864;-63
2021/06/04 09:00:56;;;;;;;11.80;4.72;;;;;;;20.61;49.10;101282.41;1763576;78;20980;-63
2021/06/04 09:03:41;;;;;;;9.45;5.25;;;;;;;20.73;49.03;101278.46;1785068;78;21407;-65
2021/06/04 09:06:12;;;;;;;7.40;3.22;;;;;;;20.83;48.98;101280.94;1780045;78;22344;-69
2021/06/04 09:08:40;;;;;;;9.88;2.12;;;;;;;20.95;45.32;101288.73;1783454;78;21422;-62
2021/06/04 09:11:17;;;;;;;9.20;1.90;;;;;;;20.96;44.70;101295.08;1781239;78;20857;-63
2021/06/04 09:13:44;;;;;;;6.62;2.10;;;;;;;20.97;43.91;101273.66;1782796;78;20952;-68
2021/06/04 09:16:34;;;;;;;6.12;2.00;;;;;;;20.98;42.87;101282.21;1779751;78;21505;-63
2021/06/04 09:19:29;;;;;;;6.97;2.10;;;;;;;20.98;43.35;101314.41;1783653;78;20904;-66
2021/06/04 09:21:56;;;;;;;4.30;2.08;;;;;;;21.00;43.60;101300.69;1784377;78;21085;-60
2021/06/04 09:24:32;;;;;;;7.20;2.25;;;;;;;21.01;43.67;101295.62;1777536;78;20963;-63
2021/06/04 09:26:59;;;;;;;7.50;2.70;;;;;;;21.03;42.44;101295.91;1759543;79;21280;-62
2021/06/04 09:29:28;;;;;;;6.80;1.82;;;;;;;20.98;43.53;101287.66;1723189;81;21035;-60
2021/06/04 09:31:58;;;;;;;9.00;2.80;;;;;;;20.95;43.12;101286.52;1731025;81;21365;-62
2021/06/04 09:34:31;;;;;;;6.22;3.55;;;;;;;20.96;43.45;101283.67;1720021;81;21157;-62
2021/06/04 09:37:23;;;;;;;10.60;3.37;;;;;;;20.99;43.22;101313.43;1724769;81;21067;-65
2021/06/04 09:39:54;;;;;;;8.80;2.33;;;;;;;20.99;43.77;101281.23;1717196;81;21047;-62
2021/06/04 09:42:29;;;;;;;11.80;5.17;;;;;;;21.02;43.76;101289.19;1731909;81;21082;-66
2021/06/04 09:45:07;;;;;;;5.78;4.90;;;;;;;21.08;43.88;101278.34;1704300;82;21620;-64
2021/06/04 09:47:45;;;;;;;9.25;3.17;;;;;;;21.20;44.25;101282.05;1710885;82;21097;-65
2021/06/04 09:50:21;;;;;;;7.75;3.60;;;;;;;21.24;43.50;101288.54;1679955;82;21120;-61
2021/06/04 09:53:10;;;;;;;9.78;4.53;;;;;;;21.21;43.88;101315.14;1708564;82;21439;-62
2021/06/04 09:55:48;;;;;;;8.60;4.03;;;;;;;21.17;43.97;101300.37;1770037;79;20951;-61
2021/06/04 09:58:25;;;;;;;8.50;3.70;;;;;;;21.13;43.40;101309.75;1759525;79;20884;-62
2021/06/04 10:01:04;;;;;;;8.30;2.50;;;;;;;21.07;43.16;101324.30;1760106;79;21040;-61
2021/06/04 10:03:44;;;;;;;6.30;2.30;;;;;;;21.04;43.59;101297.64;1752879;79;21101;-64
2021/06/04 10:06:31;;;;;;;6.70;2.87;;;;;;;21.08;44.21;101298.28;1722643;82;21170;-65
2021/06/04 10:09:22;;;;;;;8.70;1.87;;;;;;;21.12;44.49;101294.37;1706964;82;21019;-62
2021/06/04 10:12:02;;;;;;;8.55;1.90;;;;;;;21.16;44.55;101310.89;1712901;81;21407;-60
2021/06/04 10:14:58;;;;;;;5.45;2.10;;;;;;;21.12;44.29;101308.02;1725264;81;21814;-67
2021/06/04 10:17:42;;;;;;;9.30;2.47;;;;;;;21.01;43.82;101295.62;1711055;82;28692;-63
2021/06/04 10:20:37;;;;;;;4.78;2.37;;;;;;;20.94;45.50;101291.59;1736766;80;21422;-63
2021/06/04 10:23:08;;;;;;;4.65;2.17;;;;;;;20.93;44.77;101288.48;1705562;81;21019;-65
2021/06/04 10:25:52;;;;;;;7.33;3.40;;;;;;;20.89;44.73;101284.63;1765494;80;20948;-62
2021/06/04 10:28:46;;;;;;;14.05;5.72;;;;;;;20.88;45.15;101288.30;1768217;80;21320;-68
2021/06/04 10:31:20;;;;;;;;;;;;;;;20.89;45.29;101277.81;1767521;80;20944;-70
2021/06/04 10:34:18;;;;;;;19.57;7.35;;;;;;;20.88;45.72;101301.92;1767025;80;20100;-65
2021/06/04 10:36:47;;;;;;;8.70;2.05;;;;;;;20.92;45.78;101284.02;1760178;80;20944;-69
2021/06/04 10:39:19;;;;;;;7.75;4.12;;;;;;;20.92;44.06;101293.55;1761090;80;20956;-65
2021/06/04 10:42:23;;;;;;;9.43;4.35;;;;;;;20.95;45.56;101275.62;1774027;80;21184;-64
2021/06/04 10:45:07;;;;;;;14.68;4.30;;;;;;;21.03;45.14;101279.55;1762338;80;21413;-68
2021/06/04 10:47:57;;;;;;;8.20;3.20;;;;;;;21.15;44.71;101295.99;1716164;82;21584;-68
2021/06/04 10:50:31;;;;;;;14.35;3.17;;;;;;;21.19;43.84;101281.16;1756081;80;21674;-69
2021/06/04 10:53:32;;;;;;;9.90;2.27;;;;;;;21.18;43.11;101295.30;1762810;80;21656;-70
2021/06/04 10:56:13;;;;;;;17.60;2.35;;;;;;;21.14;41.69;101306.52;1751267;79;21565;-71
2021/06/04 10:59:05;;;;;;;6.10;2.10;;;;;;;21.11;42.14;101302.17;1746372;80;21349;-64
2021/06/04 11:01:54;;;;;;;11.83;2.12;;;;;;;21.12;42.05;101294.86;1754930;80;21040;-65
2021/06/04 11:04:26;;;;;;;7.58;2.20;;;;;;;21.13;43.23;101301.58;1760912;80;21000;-65
2021/06/04 11:07:01;;;;;;;13.35;2.00;;;;;;;21.14;42.76;101316.95;1728848;80;20961;-65
2021/06/04 11:09:42;;;;;;;3.30;1.87;;;;;;;21.20;42.94;101292.95;1789651;79;21430;-72
2021/06/04 11:12:37;;;;;;;5.58;2.30;;;;;;;21.27;42.33;101305.15;1789846;78;20904;-70
2021/06/04 11:15:18;;;;;;;4.53;2.50;;;;;;;21.32;41.23;101284.75;1787156;79;20934;-71
2021/06/04 11:17:53;;;;;;;4.65;2.15;;;;;;;21.37;41.78;101291.25;1780240;78;20991;-69
2021/06/04 11:20:23;;;;;;;5.78;1.70;;;;;;;21.41;39.76;101306.41;1787974;78;20945;-71
2021/06/04 11:23:13;;;;;;;6.15;1.67;;;;;;;21.42;37.11;101310.88;1791862;78;21394;-71
2021/06/04 11:25:58;;;;;;;8.53;1.40;;;;;;;21.43;37.88;101309.89;1760154;80;20908;-69
2021/06/04 11:28:42;;;;;;;4.10;1.53;;;;;;;21.37;37.43;101314.44;1757428;80;21541;-69
2021/06/04 11:31:35;;;;;;;8.80;1.80;;;;;;;21.33;38.27;101316.50;1767392;80;21253;-69
2021/06/04 11:34:06;;;;;;;4.10;1.62;;;;;;;21.32;38.12;101311.14;1761381;80;21047;-70
2021/06/04 11:36:34;;;;;;;5.33;1.80;;;;;;;21.35;38.85;101297.78;1767471;80;21105;-69
2021/06/04 11:39:27;;;;;;;4.25;1.95;;;;;;;21.36;39.61;101304.98;1770675;80;21071;-71
2021/06/04 11:41:55;;;;;;;3.75;1.80;;;;;;;21.32;39.88;101320.20;1765074;80;21076;-71
2021/06/04 11:44:34;;;;;;;10.90;2.20;;;;;;;21.31;40.22;101310.28;1767520;79;21075;-71
2021/06/04 11:47:15;;;;;;;7.85;1.98;;;;;;;21.32;41.19;101302.95;1739055;80;21036;-70
2021/06/04 11:50:06;;;;;;;4.80;1.87;;;;;;;21.34;41.33;101290.11;1764766;80;21526;-71
2021/06/04 11:52:39;;;;;;;3.70;1.95;;;;;;;21.34;42.01;101322.84;1758042;80;21082;-70